WetterOnline ( https://www.wetteronline.de )

Wetter aktuell Bad Wurzach

Aktuelles Wetter: Leutkirch-Herlazhofen (671m)

6-stündlich | Neueste Meldungen
Ortszeit Temperatur Wetter
Di, 27.02. 1:00 4.4° C bedeckt
Mo, 26.02. 19:00 7.8° C bedeckt
Mo, 26.02. 13:00 9.0° C bedeckt
Mo, 26.02. 7:00 2.3° C bewölkt
Mo, 26.02. 1:00 0.0° C bewölkt
So, 25.02. 19:00 1.7° C leicht bewölkt
So, 25.02. 13:00 8.7° C leicht bewölkt
So, 25.02. 7:00 -1.6° C wolkenlos
Ortszeit Temperatur Wetter
Di, 27.02. 5:00 3.8° C bewölkt
Di, 27.02. 4:50 3.8° C bewölkt
Di, 27.02. 4:40 4.0° C bewölkt
Di, 27.02. 4:30 4.1° C bedeckt
Di, 27.02. 4:20 4.1° C leichter Regen
Di, 27.02. 4:10 4.1° C bewölkt
Di, 27.02. 4:00 4.2° C bewölkt
Di, 27.02. 3:30 4.2° C bewölkt
Di, 27.02. 3:00 4.3° C bedeckt
Di, 27.02. 2:30 4.3° C bedeckt
Di, 27.02. 2:00 4.4° C bedeckt
Ortszeit Relative Feuchte Sichtweite
Di, 27.02. 1:00 84% 40 km
Mo, 26.02. 19:00 69% >70 km
Mo, 26.02. 13:00 60% 65 km
Mo, 26.02. 7:00 86% 65 km
Mo, 26.02. 1:00 85% >70 km
So, 25.02. 19:00 84% >70 km
So, 25.02. 13:00 50% 50 km
So, 25.02. 7:00 99% >70 km
Ortszeit Relative Feuchte Sichtweite
Di, 27.02. 5:00 86% 40 km
Di, 27.02. 4:50 86% -
Di, 27.02. 4:40 84% -
Di, 27.02. 4:30 84% 45 km
Di, 27.02. 4:20 84% -
Di, 27.02. 4:10 85% -
Di, 27.02. 4:00 84% 50 km
Di, 27.02. 3:30 85% 45 km
Di, 27.02. 3:00 84% 40 km
Di, 27.02. 2:30 85% 45 km
Di, 27.02. 2:00 85% 50 km
Ortszeit Niederschlagsmenge Niederschlagsart
Di, 27.02. 1:00 0.0 l/m2 in 6 Std. -
Mo, 26.02. 19:00 0.1 l/m2 in 12 Std. Regen
Mo, 26.02. 13:00 0.0 l/m2 in 6 Std. -
Mo, 26.02. 7:00 0.0 l/m2 in 12 Std. -
Mo, 26.02. 1:00 0.0 l/m2 in 6 Std. -
So, 25.02. 19:00 0.0 l/m2 in 12 Std. -
So, 25.02. 13:00 0.0 l/m2 in 6 Std. -
So, 25.02. 7:00 0.0 l/m2 in 12 Std. -
Ortszeit Niederschlagsmenge Niederschlagsart
Di, 27.02. 5:00 <0.05 l/m2 in 1 Std. Regen
Di, 27.02. 4:50 keine Meldung -
Di, 27.02. 4:40 keine Meldung -
Di, 27.02. 4:30 <0.05 l/m2 in 30 Min Schneeregen
Di, 27.02. 4:20 keine Meldung -
Di, 27.02. 4:10 keine Meldung -
Di, 27.02. 4:00 0.0 l/m2 in 1 Std. -
Di, 27.02. 3:30 0.0 l/m2 in 30 Min -
Di, 27.02. 3:00 0.0 l/m2 in 1 Std. -
Di, 27.02. 2:30 0.0 l/m2 in 30 Min -
Di, 27.02. 2:00 0.0 l/m2 in 1 Std. -
Ortszeit Stärke Spitze Richtung
km/h Bft. km/h Grad Sektor
Di, 27.02. 1:00 4 1 18 140° SO
Mo, 26.02. 19:00 7 2 33 50° NO
Mo, 26.02. 13:00 7 2 18 350° N
Mo, 26.02. 7:00 7 2 11 280° W
Mo, 26.02. 1:00 0 0 7 - -
So, 25.02. 19:00 4 1 22 170° S
So, 25.02. 13:00 4 1 11 260° W
So, 25.02. 7:00 2 1 19 90° O
Ortszeit Stärke Spitze Richtung
km/h Bft. km/h Grad Sektor
Di, 27.02. 5:00 11 2 18 40° NO
Di, 27.02. 4:50 11 2 - 40° NO
Di, 27.02. 4:40 7 2 - 40° NO
Di, 27.02. 4:30 6 1 11 20° N
Di, 27.02. 4:20 6 1 - 20° N
Di, 27.02. 4:10 4 1 - 360° N
Di, 27.02. 4:00 4 1 11 350° N
Di, 27.02. 3:30 4 1 11 40° NO
Di, 27.02. 3:00 6 1 11 50° NO
Di, 27.02. 2:30 4 1 11 70° O
Di, 27.02. 2:00 4 1 11 360° N
Ortszeit Untergrenze Bedeckung Gattung
total tief tief mittel hoch
Di, 27.02. 1:00 2400 m 8/8 8/8 - - -
Mo, 26.02. 19:00 1800 m 8/8 8/8 - - -
Mo, 26.02. 13:00 2400 m 8/8 8/8 - - -
Mo, 26.02. 7:00 1410 m 7/8 7/8 - - -
Mo, 26.02. 1:00 2400 m 8/8 5/8 - - -
So, 25.02. 19:00 8400 m 4/8 0/8 - - -
So, 25.02. 13:00 3600 m 2/8 2/8 - - -
So, 25.02. 7:00 - 0/8 0/8 - - -
Ortszeit Bedeckungsgrad in Achtel und Wolkenuntergrenze
Di, 27.02. 5:00 7(1800m)
Di, 27.02. 4:50 7(1800m)
Di, 27.02. 4:40 7
Di, 27.02. 4:30 8(1800m)
Di, 27.02. 4:20 8(1800m)
Di, 27.02. 4:10 7
Di, 27.02. 4:00 1(1500m) 7(1800m)
Di, 27.02. 3:30 1(1440m) 6(1800m) 7(2400m)
Di, 27.02. 3:00 3(1470m) 8(2100m)
Di, 27.02. 2:30 7(1500m) 8(2400m)
Di, 27.02. 2:00 3(1800m) 4(2100m) 8(2700m)
Ortszeit Luftdruck NN (hPa) Tendenz (hPa in 3 Std.)
Di, 27.02. 1:00 1008 + 2,3
Mo, 26.02. 19:00 1002 + 1,7
Mo, 26.02. 13:00 1000 + 0,9
Mo, 26.02. 7:00 1000 + 0,1
Mo, 26.02. 1:00 1001 - 0,5
So, 25.02. 19:00 1004 - 1,0
So, 25.02. 13:00 1005 - 1,7
So, 25.02. 7:00 1010 - 0,6
Ortszeit Luftdruck NN (hPa) Tendenz (hPa in 3 Std.)
Di, 27.02. 5:00 1009 + 0,7
Di, 27.02. 4:50 1009 keine Meldung
Di, 27.02. 4:40 1008 keine Meldung
Di, 27.02. 4:30 1008 + 0,5
Di, 27.02. 4:20 1008 keine Meldung
Di, 27.02. 4:10 1008 keine Meldung
Di, 27.02. 4:00 1008 + 0,2
Di, 27.02. 3:30 1008 + 0,8
Di, 27.02. 3:00 1008 + 0,9
Di, 27.02. 2:30 1008 + 1,3
Di, 27.02. 2:00 1008 + 1,7
Ortszeit Schneehöhe (cm)
Di, 27.02. 1:00 0
Mo, 26.02. 19:00 0
Mo, 26.02. 13:00 0
Mo, 26.02. 7:00 0
Mo, 26.02. 1:00 0
So, 25.02. 19:00 0
So, 25.02. 13:00 0
So, 25.02. 7:00 0
Ortszeit Schneehöhe (cm)
Di, 27.02. 5:00 0
Di, 27.02. 4:50 0
Di, 27.02. 4:40 -
Di, 27.02. 4:30 0
Di, 27.02. 4:20 0
Di, 27.02. 4:10 -
Di, 27.02. 4:00 0
Di, 27.02. 3:30 0
Di, 27.02. 3:00 0
Di, 27.02. 2:30 0
Di, 27.02. 2:00 0
Link zu dieser Seite / Seite empfehlen

Das Wetter in ...